Terminal Aerodrome Forecast
Issued by NWS Bismarck, ND

Home | Current Version | Previous Version | Text Only | Print | Product List | Glossary Off
Versions: 1 2 3 4 5 6 7 8 9 10 11 12 13 14 15 16 17 18 19 20 21 22 23 24 25 26

000
FTUS43 KBIS 302321
TAFBIS
TAF
KBIS 302321Z 0100/0124 33009KT P6SM -SN BKN012 OVC020
     FM010400 32007KT P6SM -SN OVC008
     FM010900 32005KT P6SM BKN008
     FM011400 VRB03KT P6SM OVC008
     FM011800 34004KT P6SM OVC010=

USA.gov is the U.S. government's official web portal to all federal, state and local government web resources and services.